createdAt,value
2019-02-07T00:01:21.228Z,-1.90
2019-02-07T00:03:56.107Z,-1.90
2019-02-07T00:06:25.074Z,-1.90
2019-02-07T00:08:54.147Z,-1.90
2019-02-07T00:11:23.152Z,-1.90
2019-02-07T00:13:52.187Z,-1.90
2019-02-07T00:16:21.608Z,-1.80
2019-02-07T00:19:09.744Z,-1.80
2019-02-07T00:21:38.764Z,-1.80
2019-02-07T00:24:08.395Z,-1.70
2019-02-07T00:26:37.400Z,-1.70
2019-02-07T00:29:06.441Z,-1.70
2019-02-07T00:31:35.556Z,-1.70
2019-02-07T00:34:23.678Z,-1.70
2019-02-07T00:36:52.612Z,-1.80
2019-02-07T00:39:41.325Z,-1.80
2019-02-07T00:42:10.332Z,-1.90
2019-02-07T00:44:50.239Z,-1.90
2019-02-07T00:47:10.098Z,-1.90
2019-02-07T00:49:44.292Z,-1.90
2019-02-07T00:52:14.500Z,-2.00
2019-02-07T00:54:43.459Z,-2.00
2019-02-07T00:57:12.488Z,-2.00
2019-02-07T00:59:41.448Z,-2.00
2019-02-07T01:02:10.672Z,-2.10
2019-02-07T01:04:39.756Z,-2.20
2019-02-07T01:07:27.884Z,-2.20
2019-02-07T01:09:56.816Z,-2.30
2019-02-07T01:12:31.624Z,-2.40
2019-02-07T01:15:02.358Z,-2.40
2019-02-07T01:17:31.386Z,-2.50
2019-02-07T01:20:00.388Z,-2.50
2019-02-07T01:22:32.315Z,-2.50
2019-02-07T01:25:01.329Z,-2.50
2019-02-07T01:27:50.044Z,-2.40
2019-02-07T01:30:20.747Z,-2.50
2019-02-07T01:32:49.789Z,-2.50
2019-02-07T01:35:18.808Z,-2.60
2019-02-07T01:37:47.810Z,-2.60
2019-02-07T01:40:18.184Z,-2.60
2019-02-07T01:42:47.398Z,-2.60
2019-02-07T01:45:18.596Z,-2.60
2019-02-07T01:47:50.936Z,-2.50
2019-02-07T01:50:21.616Z,-2.50
2019-02-07T01:52:51.024Z,-2.40
2019-02-07T01:55:20.631Z,-2.40
2019-02-07T01:57:49.663Z,-2.40
2019-02-07T02:00:18.872Z,-2.40
2019-02-07T02:02:48.000Z,-2.40
2019-02-07T02:05:17.819Z,-2.40
2019-02-07T02:08:06.436Z,-2.30
2019-02-07T02:10:35.433Z,-2.30
2019-02-07T02:13:04.687Z,-2.20
2019-02-07T02:15:33.713Z,-2.20
2019-02-07T02:18:02.744Z,-2.20
2019-02-07T02:20:31.864Z,-2.20
2019-02-07T02:23:03.630Z,-2.20
2019-02-07T02:25:35.736Z,-2.20
2019-02-07T02:28:09.992Z,-2.20
2019-02-07T02:30:39.023Z,-2.30
2019-02-07T02:33:08.045Z,-2.20
2019-02-07T02:35:37.065Z,-2.20
2019-02-07T02:38:06.075Z,-2.20
2019-02-07T02:40:35.092Z,-2.30
2019-02-07T02:43:04.116Z,-2.30
2019-02-07T02:45:37.488Z,-2.30
2019-02-07T02:48:03.855Z,-2.30
2019-02-07T02:50:32.775Z,-2.30
2019-02-07T02:53:01.786Z,-2.20
2019-02-07T02:55:35.568Z,-2.20
2019-02-07T02:58:05.402Z,-2.20
2019-02-07T03:00:52.401Z,-2.10
2019-02-07T03:03:40.489Z,-2.00
2019-02-07T03:06:22.437Z,-2.00
2019-02-07T03:09:11.769Z,-1.90
2019-02-07T03:11:58.660Z,-1.90
2019-02-07T03:14:46.778Z,-1.90
2019-02-07T03:17:24.897Z,-1.80
2019-02-07T03:20:37.332Z,-1.80
2019-02-07T03:23:28.166Z,-1.80
2019-02-07T03:26:20.677Z,-1.90
2019-02-07T03:29:17.041Z,-1.90
2019-02-07T03:32:11.215Z,-1.90
2019-02-07T03:35:33.663Z,-2.00
2019-02-07T03:38:29.669Z,-2.00
2019-02-07T03:41:20.312Z,-2.00
2019-02-07T03:43:56.170Z,-1.90
2019-02-07T03:46:49.308Z,-1.90
2019-02-07T03:49:27.408Z,-1.90
2019-02-07T03:52:14.340Z,-1.90
2019-02-07T03:55:05.470Z,-1.90
2019-02-07T03:57:47.215Z,-1.80
2019-02-07T04:00:35.366Z,-1.80
2019-02-07T04:03:12.145Z,-1.80
2019-02-07T04:06:00.242Z,-1.80
2019-02-07T04:09:13.625Z,-1.80
2019-02-07T04:12:01.698Z,-1.70
2019-02-07T04:14:52.816Z,-1.80
2019-02-07T04:17:46.842Z,-1.90
2019-02-07T04:20:44.702Z,-1.80
2019-02-07T04:23:32.052Z,-1.80
2019-02-07T04:26:23.162Z,-1.80
2019-02-07T04:29:00.126Z,-1.80
2019-02-07T04:31:57.488Z,-1.70
2019-02-07T04:34:44.427Z,-1.80
2019-02-07T04:37:32.365Z,-1.80
2019-02-07T04:40:18.972Z,-1.90
2019-02-07T04:43:11.603Z,-1.90
2019-02-07T04:45:53.708Z,-1.90
2019-02-07T04:49:00.906Z,-1.90
2019-02-07T04:51:54.774Z,-1.90
2019-02-07T04:54:45.698Z,-1.90
2019-02-07T04:57:32.244Z,-1.90
2019-02-07T05:00:19.104Z,-1.90
2019-02-07T05:03:17.642Z,-1.90
2019-02-07T05:05:59.240Z,-1.80
2019-02-07T05:08:40.851Z,-1.90
2019-02-07T05:11:31.264Z,-1.90
2019-02-07T05:14:28.247Z,-1.90
2019-02-07T05:17:14.913Z,-2.00
2019-02-07T05:20:01.819Z,-2.00
2019-02-07T05:22:43.509Z,-2.10
2019-02-07T05:25:55.177Z,-2.10
2019-02-07T05:28:46.277Z,-2.20
2019-02-07T05:31:43.266Z,-2.30
2019-02-07T05:34:43.388Z,-2.30
2019-02-07T05:37:36.530Z,-2.30
2019-02-07T05:40:18.651Z,-2.30
2019-02-07T05:43:06.716Z,-2.30
2019-02-07T05:45:53.626Z,-2.20
2019-02-07T05:48:47.242Z,-2.20
2019-02-07T05:51:42.915Z,-2.20
2019-02-07T05:54:29.844Z,-2.20
2019-02-07T05:57:17.932Z,-2.20
2019-02-07T06:00:17.999Z,-2.20
2019-02-07T06:03:10.477Z,-2.20
2019-02-07T06:05:57.143Z,-2.30
2019-02-07T06:09:00.596Z,-2.30
2019-02-07T06:12:01.074Z,-2.40
2019-02-07T06:14:54.892Z,-2.50
2019-02-07T06:17:38.557Z,-2.50
2019-02-07T06:20:33.573Z,-2.60
2019-02-07T06:23:39.123Z,-2.50
2019-02-07T06:26:26.353Z,-2.60
2019-02-07T06:29:13.082Z,-2.60
2019-02-07T06:32:07.749Z,-2.60
2019-02-07T06:34:55.154Z,-2.60
2019-02-07T06:37:43.337Z,-2.60
2019-02-07T06:40:40.996Z,-2.60
2019-02-07T06:43:18.460Z,-2.60
2019-02-07T06:45:56.596Z,-2.60
2019-02-07T06:48:47.710Z,-2.60
2019-02-07T06:51:35.801Z,-2.50
2019-02-07T06:54:27.256Z,-2.50
2019-02-07T06:57:34.463Z,-2.50
2019-02-07T07:00:29.584Z,-2.40
2019-02-07T07:03:16.180Z,-2.40
2019-02-07T07:06:19.572Z,-2.40
2019-02-07T07:09:25.850Z,-2.30
2019-02-07T07:12:15.720Z,-2.30
2019-02-07T07:15:09.956Z,-2.30
2019-02-07T07:17:56.624Z,-2.20
2019-02-07T07:20:50.815Z,-2.20
2019-02-07T07:23:41.683Z,-2.10
2019-02-07T07:26:28.300Z,-2.10
2019-02-07T07:29:15.159Z,-2.00
2019-02-07T07:31:58.815Z,-1.90
2019-02-07T07:35:02.122Z,-1.80
2019-02-07T07:37:48.971Z,-1.70
2019-02-07T07:40:40.492Z,-1.60
2019-02-07T07:43:34.805Z,-1.50
2019-02-07T07:46:21.756Z,-1.40
2019-02-07T07:49:00.721Z,-1.30
2019-02-07T07:51:55.426Z,-1.20
2019-02-07T07:54:46.793Z,-1.00
2019-02-07T07:57:34.818Z,-0.80
2019-02-07T08:00:36.872Z,-0.70
2019-02-07T08:03:23.626Z,-0.50
2019-02-07T08:06:15.045Z,-0.40
2019-02-07T08:08:59.539Z,-0.30
2019-02-07T08:11:46.507Z,-0.20
2019-02-07T08:14:33.461Z,0.00
2019-02-07T08:17:27.772Z,0.10
2019-02-07T08:20:15.153Z,0.10
2019-02-07T08:23:06.229Z,0.20
2019-02-07T08:26:00.278Z,0.40
2019-02-07T08:28:48.368Z,0.50
2019-02-07T08:31:32.732Z,0.70
2019-02-07T08:34:12.485Z,0.80
2019-02-07T08:37:00.265Z,0.90
2019-02-07T08:39:48.452Z,1.00
2019-02-07T08:42:36.528Z,1.10
2019-02-07T08:45:35.811Z,1.30
2019-02-07T08:48:18.248Z,1.60
2019-02-07T08:51:06.611Z,1.80
2019-02-07T08:53:55.499Z,1.90
2019-02-07T08:56:45.284Z,2.10
2019-02-07T08:59:22.633Z,2.30
2019-02-07T09:02:04.612Z,2.50
2019-02-07T09:04:55.641Z,2.70
2019-02-07T09:07:48.388Z,2.90
2019-02-07T09:10:58.688Z,3.20
2019-02-07T09:13:45.543Z,3.30
2019-02-07T09:16:32.477Z,3.40
2019-02-07T09:19:20.416Z,3.60
2019-02-07T09:22:07.182Z,3.80
2019-02-07T09:24:53.876Z,4.00
2019-02-07T09:27:41.976Z,3.90
2019-02-07T09:30:34.125Z,4.00
2019-02-07T09:33:21.209Z,4.20
2019-02-07T09:36:12.316Z,4.40
2019-02-07T09:39:03.261Z,4.60
2019-02-07T09:41:49.969Z,4.80
2019-02-07T09:44:36.934Z,5.00
2019-02-07T09:47:31.290Z,5.10
2019-02-07T09:50:31.412Z,5.20
2019-02-07T09:54:56.593Z,5.50
2019-02-07T09:57:38.876Z,5.60
2019-02-07T10:00:32.148Z,5.60
2019-02-07T10:03:20.130Z,5.60
2019-02-07T10:06:08.284Z,5.00
2019-02-07T10:08:57.217Z,5.10
2019-02-07T10:11:48.581Z,4.70
2019-02-07T10:14:42.761Z,4.80
2019-02-07T10:17:29.397Z,4.80
2019-02-07T10:20:16.400Z,4.90
2019-02-07T10:23:13.755Z,5.00
2019-02-07T10:26:00.645Z,4.80
2019-02-07T10:28:46.854Z,4.70
2019-02-07T10:31:41.028Z,4.90
2019-02-07T10:34:20.212Z,4.70
2019-02-07T10:37:07.258Z,4.70
2019-02-07T10:39:46.444Z,4.70
2019-02-07T10:42:34.124Z,4.70
2019-02-07T10:45:28.318Z,4.80
2019-02-07T10:48:14.965Z,4.80
2019-02-07T10:51:12.149Z,5.10
2019-02-07T10:53:58.804Z,5.20
2019-02-07T10:56:38.679Z,5.50
2019-02-07T10:59:30.402Z,5.60
2019-02-07T11:02:17.232Z,5.80
2019-02-07T11:05:10.245Z,6.00
2019-02-07T11:08:04.878Z,6.00
2019-02-07T11:10:51.553Z,5.90
2019-02-07T11:13:38.465Z,6.10
2019-02-07T11:16:26.616Z,6.40
2019-02-07T11:19:20.961Z,6.60
2019-02-07T11:21:58.199Z,6.80
2019-02-07T11:24:52.638Z,6.80
2019-02-07T11:27:43.982Z,6.80
2019-02-07T11:33:12.479Z,6.70
2019-02-07T11:36:02.437Z,7.20
2019-02-07T11:39:08.901Z,7.20
2019-02-07T11:41:48.312Z,6.90
2019-02-07T11:44:34.775Z,6.90
2019-02-07T11:47:25.921Z,6.90
2019-02-07T11:50:05.249Z,6.90
2019-02-07T11:53:02.583Z,7.10
2019-02-07T11:55:56.542Z,7.20
2019-02-07T11:58:43.249Z,7.30
2019-02-07T12:01:30.398Z,7.50
2019-02-07T12:04:12.038Z,7.50
2019-02-07T12:06:59.205Z,7.10
2019-02-07T12:09:53.524Z,7.30
2019-02-07T12:12:37.964Z,7.20
2019-02-07T12:15:27.570Z,7.10
2019-02-07T12:18:33.976Z,7.10
2019-02-07T12:21:10.974Z,7.30
2019-02-07T12:23:51.752Z,7.50
2019-02-07T12:26:39.737Z,7.20
2019-02-07T12:29:26.505Z,7.20
2019-02-07T12:32:06.983Z,7.10
2019-02-07T12:34:46.911Z,7.10
2019-02-07T12:37:37.154Z,7.10
2019-02-07T12:40:44.926Z,7.10
2019-02-07T12:43:31.474Z,7.30
2019-02-07T12:46:33.635Z,7.30
2019-02-07T12:49:29.396Z,7.40
2019-02-07T12:52:07.759Z,7.40
2019-02-07T12:54:55.008Z,7.50
2019-02-07T12:57:44.531Z,7.60
2019-02-07T13:00:35.098Z,7.70
2019-02-07T13:03:30.297Z,7.60
2019-02-07T13:06:21.762Z,7.60
2019-02-07T13:09:28.162Z,7.70
2019-02-07T13:12:14.915Z,7.90
2019-02-07T13:15:12.158Z,7.90
2019-02-07T13:18:07.135Z,8.00
2019-02-07T13:20:55.562Z,8.00
2019-02-07T13:24:01.317Z,8.00
2019-02-07T13:26:48.318Z,8.30
2019-02-07T13:29:35.102Z,8.70
2019-02-07T13:32:26.267Z,8.90
2019-02-07T13:35:13.304Z,9.40
2019-02-07T13:37:48.951Z,9.60
2019-02-07T13:40:35.984Z,9.70
2019-02-07T13:43:16.103Z,9.70
2019-02-07T13:46:21.849Z,9.30
2019-02-07T13:49:14.984Z,9.30
2019-02-07T13:52:21.357Z,9.50
2019-02-07T13:55:08.020Z,9.60
2019-02-07T13:58:12.192Z,9.40
2019-02-07T14:00:58.641Z,9.50
2019-02-07T14:03:49.777Z,9.20
2019-02-07T14:06:40.673Z,8.90
2019-02-07T14:09:27.777Z,8.80
2019-02-07T14:12:22.449Z,8.60
2019-02-07T14:15:03.076Z,8.50
2019-02-07T14:17:57.864Z,8.50
2019-02-07T14:20:46.165Z,8.50
2019-02-07T14:23:37.758Z,8.30
2019-02-07T14:26:26.733Z,8.20
2019-02-07T14:29:21.093Z,8.10
2019-02-07T14:32:08.220Z,8.20
2019-02-07T14:34:59.373Z,8.20
2019-02-07T14:37:51.912Z,8.30
2019-02-07T14:40:31.193Z,8.20
2019-02-07T14:43:22.089Z,8.20
2019-02-07T14:46:08.964Z,8.20
2019-02-07T14:48:38.201Z,8.10
2019-02-07T14:51:07.236Z,8.10
2019-02-07T14:53:36.246Z,7.90
2019-02-07T14:56:05.312Z,7.80
2019-02-07T14:58:34.309Z,7.80
2019-02-07T15:01:03.344Z,7.60
2019-02-07T15:03:32.341Z,7.60
2019-02-07T15:06:01.393Z,7.50
2019-02-07T15:08:30.423Z,7.60
2019-02-07T15:10:59.415Z,7.40
2019-02-07T15:13:30.892Z,7.20
2019-02-07T15:15:59.922Z,7.20
2019-02-07T15:18:28.973Z,7.10
2019-02-07T15:20:57.997Z,6.90
2019-02-07T15:23:27.029Z,6.80
2019-02-07T15:25:56.060Z,6.90
2019-02-07T15:28:25.080Z,6.70
2019-02-07T15:30:54.123Z,6.30
2019-02-07T15:33:23.544Z,6.20
2019-02-07T15:35:52.776Z,6.00
2019-02-07T15:38:21.828Z,6.20
2019-02-07T15:40:52.037Z,6.20
2019-02-07T15:43:21.630Z,6.40
2019-02-07T15:45:50.681Z,6.40
2019-02-07T15:48:20.280Z,6.30
2019-02-07T15:50:49.389Z,6.30
2019-02-07T15:53:18.595Z,6.20
2019-02-07T15:55:47.497Z,6.20
2019-02-07T15:58:18.185Z,6.20
2019-02-07T16:01:08.416Z,6.20
2019-02-07T16:03:39.703Z,6.00
2019-02-07T16:06:08.728Z,6.10
2019-02-07T16:08:37.841Z,6.20
2019-02-07T16:11:06.898Z,6.20
2019-02-07T16:13:36.293Z,6.10
2019-02-07T16:16:05.301Z,6.00
2019-02-07T16:18:34.324Z,6.10
2019-02-07T16:21:03.369Z,6.10
2019-02-07T16:23:32.325Z,6.10
2019-02-07T16:26:01.276Z,6.00
2019-02-07T16:28:30.888Z,6.00
2019-02-07T16:30:59.957Z,6.00
2019-02-07T16:33:28.972Z,6.10
2019-02-07T16:35:58.064Z,6.10
2019-02-07T16:38:27.080Z,6.00
2019-02-07T16:40:56.190Z,6.00
2019-02-07T16:43:27.364Z,6.00
2019-02-07T16:45:56.391Z,6.00
2019-02-07T16:48:25.423Z,6.00
2019-02-07T16:51:00.366Z,6.00
2019-02-07T16:53:25.248Z,6.00
2019-02-07T16:55:54.233Z,6.00
2019-02-07T16:58:23.733Z,6.00
2019-02-07T17:00:52.844Z,6.00
2019-02-07T17:03:21.857Z,6.10
2019-02-07T17:05:51.176Z,5.90
2019-02-07T17:08:20.228Z,6.00
2019-02-07T17:10:50.721Z,6.00
2019-02-07T17:13:20.101Z,5.90
2019-02-07T17:15:49.129Z,5.80
2019-02-07T17:18:18.105Z,5.70
2019-02-07T17:20:47.246Z,5.60
2019-02-07T17:23:16.204Z,5.60
2019-02-07T17:25:45.864Z,5.40
2019-02-07T17:28:15.263Z,5.40
2019-02-07T17:30:44.358Z,5.30
2019-02-07T17:33:13.359Z,5.20
2019-02-07T17:35:42.352Z,5.00
2019-02-07T17:38:11.361Z,5.00
2019-02-07T17:40:40.360Z,4.80
2019-02-07T17:43:09.863Z,4.00
2019-02-07T17:45:38.790Z,4.40
2019-02-07T17:48:07.839Z,4.80
2019-02-07T17:50:37.069Z,4.90
2019-02-07T17:53:06.644Z,4.70
2019-02-07T17:55:35.927Z,4.40
2019-02-07T17:58:05.862Z,4.50
2019-02-07T18:00:44.854Z,4.60
2019-02-07T18:03:13.876Z,4.60
2019-02-07T18:05:43.913Z,4.50
2019-02-07T18:08:13.531Z,4.30
2019-02-07T18:10:42.764Z,4.30
2019-02-07T18:13:11.780Z,4.20
2019-02-07T18:15:40.808Z,4.20
2019-02-07T18:18:09.813Z,4.20
2019-02-07T18:20:38.844Z,4.20
2019-02-07T18:23:08.038Z,4.10
2019-02-07T18:25:37.028Z,4.30
2019-02-07T18:28:06.611Z,4.20
2019-02-07T18:30:35.659Z,4.20
2019-02-07T18:33:05.275Z,4.30
2019-02-07T18:35:34.613Z,4.40
2019-02-07T18:38:03.632Z,4.30
2019-02-07T18:40:32.851Z,4.20
2019-02-07T18:43:02.372Z,4.20
2019-02-07T18:45:31.416Z,4.20
2019-02-07T18:48:00.428Z,4.40
2019-02-07T18:50:31.903Z,4.30
2019-02-07T18:53:00.872Z,4.30
2019-02-07T18:55:29.897Z,4.20
2019-02-07T18:57:59.285Z,4.20
2019-02-07T19:00:30.032Z,4.20
2019-02-07T19:02:59.011Z,4.40
2019-02-07T19:05:28.056Z,4.40
2019-02-07T19:07:57.656Z,4.30
2019-02-07T19:10:27.043Z,4.80
2019-02-07T19:12:57.655Z,4.70
2019-02-07T19:15:42.004Z,4.60
2019-02-07T19:18:11.028Z,4.50
2019-02-07T19:20:40.043Z,4.50
2019-02-07T19:23:09.093Z,4.40
2019-02-07T19:25:38.472Z,4.30
2019-02-07T19:28:08.451Z,4.20
2019-02-07T19:30:37.553Z,4.10
2019-02-07T19:33:06.881Z,4.10
2019-02-07T19:35:35.803Z,3.90
2019-02-07T19:38:05.530Z,3.90
2019-02-07T19:40:34.533Z,3.90
2019-02-07T19:43:04.748Z,3.90
2019-02-07T19:45:33.692Z,3.90
2019-02-07T19:48:02.677Z,3.90
2019-02-07T19:50:31.697Z,3.80
2019-02-07T19:53:00.724Z,4.10
2019-02-07T19:55:30.388Z,4.10
2019-02-07T19:57:59.612Z,4.00
2019-02-07T20:00:30.372Z,3.70
2019-02-07T20:02:59.532Z,3.60
2019-02-07T20:05:29.120Z,3.70
2019-02-07T20:07:58.351Z,4.20
2019-02-07T20:10:27.943Z,4.00
2019-02-07T20:12:57.557Z,3.90
2019-02-07T20:15:38.200Z,3.90
2019-02-07T20:18:08.523Z,3.90
2019-02-07T20:20:38.039Z,3.80
2019-02-07T20:23:07.067Z,4.00
2019-02-07T20:25:36.467Z,4.00
2019-02-07T20:28:05.653Z,4.50
2019-02-07T20:30:36.879Z,4.40
2019-02-07T20:33:07.290Z,4.20
2019-02-07T20:35:36.367Z,4.50
2019-02-07T20:38:06.048Z,4.40
2019-02-07T20:40:35.032Z,4.30
2019-02-07T20:43:05.172Z,4.20
2019-02-07T20:45:34.515Z,4.40
2019-02-07T20:48:03.638Z,4.50
2019-02-07T20:50:32.648Z,4.20
2019-02-07T20:53:01.651Z,4.20
2019-02-07T20:55:30.648Z,4.20
2019-02-07T20:57:59.659Z,4.10
2019-02-07T21:00:31.463Z,4.10
2019-02-07T21:03:00.767Z,4.20
2019-02-07T21:05:30.790Z,4.10
2019-02-07T21:08:00.022Z,4.00
2019-02-07T21:10:30.354Z,4.20
2019-02-07T21:12:59.881Z,4.20
2019-02-07T21:15:29.302Z,4.20
2019-02-07T21:17:58.320Z,4.10
2019-02-07T21:20:28.247Z,4.10
2019-02-07T21:22:58.507Z,3.80
2019-02-07T21:25:36.272Z,3.80
2019-02-07T21:28:06.467Z,3.90
2019-02-07T21:30:35.673Z,3.80
2019-02-07T21:33:05.295Z,3.80
2019-02-07T21:35:34.268Z,3.80
2019-02-07T21:38:03.891Z,3.70
2019-02-07T21:40:33.195Z,3.80
2019-02-07T21:43:02.205Z,4.00
2019-02-07T21:45:31.525Z,3.80
2019-02-07T21:48:00.550Z,4.10
2019-02-07T21:50:30.372Z,4.20
2019-02-07T21:52:59.680Z,4.10
2019-02-07T21:55:29.917Z,4.10
2019-02-07T21:57:58.925Z,4.10
2019-02-07T22:00:32.868Z,4.00
2019-02-07T22:03:02.395Z,3.90
2019-02-07T22:05:31.711Z,3.80
2019-02-07T22:08:00.760Z,3.50
2019-02-07T22:10:30.003Z,3.50
2019-02-07T22:12:59.312Z,3.30
2019-02-07T22:15:28.907Z,3.40
2019-02-07T22:17:57.982Z,3.50
2019-02-07T22:20:27.238Z,3.50
2019-02-07T22:22:56.815Z,3.40
2019-02-07T22:25:25.868Z,3.50
2019-02-07T22:27:54.867Z,3.30
2019-02-07T22:30:27.489Z,3.20
2019-02-07T22:32:56.680Z,2.90
2019-02-07T22:35:26.101Z,2.90
2019-02-07T22:37:55.164Z,2.90
2019-02-07T22:40:24.719Z,3.00
2019-02-07T22:42:53.930Z,2.80
2019-02-07T22:45:24.140Z,2.80
2019-02-07T22:47:53.172Z,2.70
2019-02-07T22:50:26.909Z,2.70
2019-02-07T22:52:57.245Z,2.70
2019-02-07T22:55:26.636Z,2.70
2019-02-07T22:57:55.640Z,2.70
2019-02-07T23:01:11.611Z,2.60
2019-02-07T23:03:45.959Z,2.60
2019-02-07T23:06:14.900Z,2.10
2019-02-07T23:08:44.420Z,2.00
2019-02-07T23:11:13.447Z,2.10
2019-02-07T23:13:42.432Z,2.20
2019-02-07T23:16:11.734Z,2.30
2019-02-07T23:18:41.106Z,2.20
2019-02-07T23:21:10.085Z,2.00
2019-02-07T23:23:39.157Z,2.00
2019-02-07T23:26:08.511Z,2.20
2019-02-07T23:28:37.492Z,2.20
2019-02-07T23:31:08.472Z,2.30
2019-02-07T23:33:38.475Z,2.40
2019-02-07T23:36:09.133Z,2.10
2019-02-07T23:38:38.601Z,2.10
2019-02-07T23:41:08.792Z,2.10
2019-02-07T23:43:45.695Z,2.10
2019-02-07T23:46:11.187Z,2.10
2019-02-07T23:48:40.655Z,2.10
2019-02-07T23:51:09.644Z,2.00
2019-02-07T23:53:38.897Z,2.10
2019-02-07T23:56:08.507Z,2.10
2019-02-07T23:58:37.517Z,2.20
